createdAt,value
2022-09-12T00:00:32.675Z,0.00
2022-09-12T00:01:32.647Z,0.00
2022-09-12T00:02:32.502Z,0.00
2022-09-12T00:03:32.443Z,0.00
2022-09-12T00:04:32.466Z,0.00
2022-09-12T00:05:33.147Z,0.00
2022-09-12T00:06:32.478Z,0.00
2022-09-12T00:07:32.568Z,0.00
2022-09-12T00:08:32.496Z,0.00
2022-09-12T00:09:32.466Z,0.00
2022-09-12T00:10:32.323Z,0.00
2022-09-12T00:11:32.427Z,0.00
2022-09-12T00:12:32.327Z,0.00
2022-09-12T00:13:32.288Z,0.00
2022-09-12T00:14:32.242Z,0.00
2022-09-12T00:15:32.307Z,0.00
2022-09-12T00:16:33.257Z,0.00
2022-09-12T00:17:32.171Z,0.00
2022-09-12T00:18:33.240Z,0.00
2022-09-12T00:19:32.156Z,0.00
2022-09-12T00:20:32.248Z,0.00
2022-09-12T00:21:32.184Z,0.00
2022-09-12T00:22:32.263Z,0.00
2022-09-12T00:23:32.229Z,0.00
2022-09-12T00:24:32.776Z,0.00
2022-09-12T00:25:32.164Z,0.00
2022-09-12T00:26:32.258Z,0.00
2022-09-12T00:27:32.136Z,0.00
2022-09-12T00:28:32.028Z,0.00
2022-09-12T00:29:32.697Z,0.00
2022-09-12T00:30:32.127Z,0.00
2022-09-12T00:31:32.133Z,0.00
2022-09-12T00:32:32.054Z,0.00
2022-09-12T00:33:32.012Z,0.00
2022-09-12T00:34:32.094Z,0.00
2022-09-12T00:35:31.992Z,0.00
2022-09-12T00:36:32.036Z,0.00
2022-09-12T00:37:31.988Z,0.00
2022-09-12T00:38:31.964Z,0.00
2022-09-12T00:39:31.969Z,0.00
2022-09-12T00:40:32.049Z,0.00
2022-09-12T00:41:31.997Z,0.00
2022-09-12T00:42:31.873Z,0.00
2022-09-12T00:43:31.901Z,0.00
2022-09-12T00:44:32.031Z,0.00
2022-09-12T00:45:31.972Z,0.00
2022-09-12T00:46:31.892Z,0.00
2022-09-12T00:47:32.100Z,0.00
2022-09-12T00:48:31.874Z,0.00
2022-09-12T00:49:32.105Z,0.00
2022-09-12T00:50:31.809Z,0.00
2022-09-12T00:51:31.793Z,0.00
2022-09-12T00:52:31.753Z,0.00
2022-09-12T00:53:31.828Z,0.00
2022-09-12T00:54:31.806Z,0.00
2022-09-12T00:55:31.825Z,0.00
2022-09-12T00:56:31.845Z,0.00
2022-09-12T00:57:31.769Z,0.00
2022-09-12T00:58:31.810Z,0.00
2022-09-12T00:59:31.733Z,0.00
2022-09-12T01:00:31.721Z,0.00
2022-09-12T01:01:32.775Z,0.00
2022-09-12T01:02:32.904Z,0.00
2022-09-12T01:03:31.729Z,0.00
2022-09-12T01:04:31.714Z,0.00
2022-09-12T01:05:31.794Z,0.00
2022-09-12T01:06:31.733Z,0.00
2022-09-12T01:07:35.791Z,0.00
2022-09-12T01:08:33.733Z,0.00
2022-09-12T01:09:31.653Z,0.00
2022-09-12T01:10:31.505Z,0.00
2022-09-12T01:11:31.509Z,0.00
2022-09-12T01:12:31.482Z,0.00
2022-09-12T01:13:31.489Z,0.00
2022-09-12T01:14:31.490Z,0.00
2022-09-12T01:15:31.507Z,0.00
2022-09-12T01:16:32.457Z,0.00
2022-09-12T01:17:33.863Z,0.00
2022-09-12T01:18:32.631Z,0.00
2022-09-12T01:19:32.499Z,0.00
2022-09-12T01:20:33.899Z,0.00
2022-09-12T01:21:32.662Z,0.00
2022-09-12T01:22:32.786Z,0.00
2022-09-12T01:23:31.478Z,0.00
2022-09-12T01:24:32.744Z,0.00
2022-09-12T01:25:32.539Z,0.00
2022-09-12T01:26:31.555Z,0.00
2022-09-12T01:27:33.683Z,0.00
2022-09-12T01:28:32.431Z,0.00
2022-09-12T01:29:34.123Z,0.00
2022-09-12T01:30:32.498Z,0.00
2022-09-12T01:31:32.561Z,0.00
2022-09-12T01:32:31.470Z,0.00
2022-09-12T01:33:33.455Z,0.00
2022-09-12T01:34:32.551Z,0.00
2022-09-12T01:35:31.440Z,0.00
2022-09-12T01:36:31.251Z,0.00
2022-09-12T01:37:31.232Z,0.00
2022-09-12T01:38:31.211Z,0.00
2022-09-12T01:39:31.207Z,0.00
2022-09-12T01:40:31.216Z,0.00
2022-09-12T01:41:31.200Z,0.00
2022-09-12T01:42:31.172Z,0.00
2022-09-12T01:43:31.156Z,0.00
2022-09-12T01:44:31.273Z,0.00
2022-09-12T01:45:31.192Z,0.00
2022-09-12T01:46:31.190Z,0.00
2022-09-12T01:47:31.120Z,0.00
2022-09-12T01:48:31.120Z,0.00
2022-09-12T01:49:32.116Z,0.00
2022-09-12T01:51:03.704Z,0.00
2022-09-12T01:51:31.216Z,0.00
2022-09-12T01:52:31.221Z,0.00
2022-09-12T01:53:31.170Z,0.00
2022-09-12T01:54:31.161Z,0.00
2022-09-12T01:55:31.127Z,0.00
2022-09-12T01:56:31.129Z,0.00
2022-09-12T01:57:31.100Z,0.00
2022-09-12T01:58:31.065Z,0.00
2022-09-12T01:59:31.040Z,0.00
2022-09-12T02:00:31.050Z,0.00
2022-09-12T02:01:31.096Z,0.00
2022-09-12T02:02:31.013Z,0.00
2022-09-12T02:03:31.554Z,0.00
2022-09-12T02:04:34.158Z,0.00
2022-09-12T02:05:31.990Z,0.00
2022-09-12T02:06:31.020Z,0.00
2022-09-12T02:07:31.049Z,0.00
2022-09-12T02:08:30.940Z,0.00
2022-09-12T02:09:30.997Z,0.00
2022-09-12T02:10:32.696Z,0.00
2022-09-12T02:11:31.917Z,0.00
2022-09-12T02:12:30.921Z,0.00
2022-09-12T02:13:30.901Z,0.00
2022-09-12T02:14:30.845Z,0.00
2022-09-12T02:15:30.870Z,0.00
2022-09-12T02:16:30.973Z,0.00
2022-09-12T02:17:30.870Z,0.00
2022-09-12T02:18:30.849Z,0.00
2022-09-12T02:19:30.878Z,0.00
2022-09-12T02:20:47.415Z,0.00
2022-09-12T02:21:32.847Z,0.00
2022-09-12T02:22:31.650Z,0.00
2022-09-12T02:23:31.875Z,0.00
2022-09-12T02:24:30.748Z,0.00
2022-09-12T02:25:30.754Z,0.00
2022-09-12T02:26:30.765Z,0.00
2022-09-12T02:27:31.572Z,0.00
2022-09-12T02:28:30.757Z,0.00
2022-09-12T02:29:30.771Z,0.00
2022-09-12T02:30:30.767Z,0.00
2022-09-12T02:31:30.699Z,0.00
2022-09-12T02:32:30.711Z,0.00
2022-09-12T02:33:30.725Z,0.00
2022-09-12T02:34:30.690Z,0.00
2022-09-12T02:35:30.683Z,0.00
2022-09-12T02:36:30.654Z,0.00
2022-09-12T02:37:30.674Z,0.00
2022-09-12T02:38:30.667Z,0.00
2022-09-12T02:39:30.654Z,0.00
2022-09-12T02:40:30.622Z,0.00
2022-09-12T02:41:30.648Z,0.00
2022-09-12T02:42:30.603Z,0.00
2022-09-12T02:43:30.662Z,0.00
2022-09-12T02:44:30.642Z,0.00
2022-09-12T02:45:30.651Z,0.00
2022-09-12T02:46:30.564Z,0.00
2022-09-12T02:47:30.595Z,0.00
2022-09-12T02:48:30.518Z,0.00
2022-09-12T02:49:30.565Z,0.00
2022-09-12T02:50:30.535Z,0.00
2022-09-12T02:51:30.536Z,0.00
2022-09-12T02:52:30.575Z,0.00
2022-09-12T02:53:30.572Z,0.00
2022-09-12T02:54:30.544Z,0.00
2022-09-12T02:55:30.506Z,0.00
2022-09-12T02:56:30.475Z,0.00
2022-09-12T02:57:30.480Z,0.00
2022-09-12T02:58:30.479Z,0.00
2022-09-12T02:59:30.435Z,0.00
2022-09-12T03:00:30.435Z,0.00
2022-09-12T03:01:30.546Z,0.00
2022-09-12T03:02:30.475Z,0.00
2022-09-12T03:03:30.384Z,0.00
2022-09-12T03:04:30.501Z,0.00
2022-09-12T03:05:30.367Z,0.00
2022-09-12T03:06:30.352Z,0.00
2022-09-12T03:07:30.364Z,0.00
2022-09-12T03:08:30.332Z,0.00
2022-09-12T03:09:30.340Z,0.00
2022-09-12T03:10:30.320Z,0.00
2022-09-12T03:11:30.349Z,0.00
2022-09-12T03:12:30.316Z,0.00
2022-09-12T03:13:30.332Z,0.00
2022-09-12T03:14:30.276Z,0.00
2022-09-12T03:15:30.232Z,0.00
2022-09-12T03:16:30.488Z,0.00
2022-09-12T03:17:30.287Z,0.00
2022-09-12T03:18:30.232Z,0.00
2022-09-12T03:19:30.266Z,0.00
2022-09-12T03:20:30.232Z,0.00
2022-09-12T03:21:30.260Z,0.00
2022-09-12T03:22:30.250Z,0.00
2022-09-12T03:23:30.192Z,0.00
2022-09-12T03:24:30.265Z,0.00
2022-09-12T03:25:30.160Z,0.00
2022-09-12T03:26:30.177Z,0.00
2022-09-12T03:27:30.214Z,0.00
2022-09-12T03:28:30.226Z,0.00
2022-09-12T03:29:30.089Z,0.00
2022-09-12T03:30:30.180Z,0.00
2022-09-12T03:31:30.113Z,0.00
2022-09-12T03:32:30.757Z,0.00
2022-09-12T03:33:30.129Z,0.00
2022-09-12T03:34:30.024Z,0.00
2022-09-12T03:35:30.053Z,0.00
2022-09-12T03:36:30.113Z,0.00
2022-09-12T03:37:30.078Z,0.00
2022-09-12T03:38:30.057Z,0.00
2022-09-12T03:39:30.065Z,0.00
2022-09-12T03:40:30.026Z,0.00
2022-09-12T03:41:29.997Z,0.00
2022-09-12T03:42:30.049Z,0.00
2022-09-12T03:43:30.011Z,0.00
2022-09-12T03:44:30.013Z,0.00
2022-09-12T03:45:30.012Z,0.00
2022-09-12T03:46:29.962Z,0.00
2022-09-12T03:47:29.954Z,0.00
2022-09-12T03:48:29.974Z,0.00
2022-09-12T03:49:29.986Z,0.00
2022-09-12T03:50:30.022Z,0.00
2022-09-12T03:51:29.879Z,0.00
2022-09-12T03:52:29.910Z,0.00
2022-09-12T03:53:30.143Z,0.00
2022-09-12T03:54:29.877Z,0.00
2022-09-12T03:55:29.887Z,0.00
2022-09-12T03:56:29.854Z,0.00
2022-09-12T03:57:29.816Z,0.00
2022-09-12T03:58:29.854Z,0.00
2022-09-12T03:59:29.886Z,0.00
2022-09-12T04:00:29.802Z,0.00
2022-09-12T04:01:29.854Z,0.00
2022-09-12T04:02:29.845Z,0.00
2022-09-12T04:03:29.842Z,0.00
2022-09-12T04:04:29.791Z,0.00
2022-09-12T04:05:29.778Z,0.00
2022-09-12T04:06:29.793Z,0.00
2022-09-12T04:07:29.711Z,0.00
2022-09-12T04:08:29.731Z,0.00
2022-09-12T04:09:29.742Z,0.00
2022-09-12T04:10:29.703Z,0.00
2022-09-12T04:11:30.610Z,0.00
2022-09-12T04:12:29.708Z,0.00
2022-09-12T04:13:29.751Z,0.00
2022-09-12T04:14:29.651Z,0.00
2022-09-12T04:15:29.703Z,0.00
2022-09-12T04:16:29.741Z,0.00
2022-09-12T04:17:29.651Z,0.00
2022-09-12T04:18:29.614Z,0.00
2022-09-12T04:19:29.630Z,0.00
2022-09-12T04:20:29.638Z,0.00
2022-09-12T04:21:29.632Z,0.00
2022-09-12T04:22:29.612Z,0.00
2022-09-12T04:23:29.560Z,0.00
2022-09-12T04:24:29.575Z,0.00
2022-09-12T04:25:29.600Z,0.00
2022-09-12T04:26:29.545Z,0.00
2022-09-12T04:27:29.512Z,0.00
2022-09-12T04:28:29.604Z,0.00
2022-09-12T04:29:29.544Z,0.00
2022-09-12T04:30:29.574Z,0.00
2022-09-12T04:31:30.638Z,4.00
2022-09-12T04:32:29.520Z,0.00
2022-09-12T04:33:29.509Z,4.00
2022-09-12T04:34:29.517Z,0.00
2022-09-12T04:35:29.456Z,0.00
2022-09-12T04:36:29.452Z,4.00
2022-09-12T04:37:29.548Z,0.00
2022-09-12T04:38:29.456Z,4.00
2022-09-12T04:40:01.942Z,4.00
2022-09-12T04:40:29.493Z,4.00
2022-09-12T04:42:01.896Z,4.00
2022-09-12T04:42:29.540Z,4.00
2022-09-12T04:43:29.460Z,4.00
2022-09-12T04:44:29.400Z,8.00
2022-09-12T04:45:29.416Z,8.00
2022-09-12T04:46:29.355Z,8.00
2022-09-12T04:47:29.353Z,12.00
2022-09-12T04:48:29.354Z,12.00
2022-09-12T04:49:29.367Z,12.00
2022-09-12T04:50:29.362Z,12.00
2022-09-12T04:51:29.325Z,12.00
2022-09-12T04:52:29.295Z,16.00
2022-09-12T04:53:29.276Z,16.00
2022-09-12T04:54:29.295Z,20.00
2022-09-12T04:55:29.254Z,24.00
2022-09-12T04:56:29.273Z,24.00
2022-09-12T04:57:30.210Z,24.00
2022-09-12T04:58:29.255Z,28.00
2022-09-12T04:59:29.216Z,32.00
2022-09-12T05:00:29.232Z,32.00
2022-09-12T05:01:29.279Z,32.00
2022-09-12T05:02:30.989Z,36.00
2022-09-12T05:03:29.119Z,36.00
2022-09-12T05:04:29.147Z,40.00
2022-09-12T05:05:29.202Z,44.00
2022-09-12T05:06:29.170Z,44.00
2022-09-12T05:07:29.143Z,44.00
2022-09-12T05:08:29.131Z,48.00
2022-09-12T05:09:29.115Z,52.00
2022-09-12T05:10:29.119Z,56.00
2022-09-12T05:11:46.934Z,60.00
2022-09-12T05:12:30.036Z,60.00
2022-09-12T05:13:29.234Z,64.00
2022-09-12T05:14:29.031Z,68.00
2022-09-12T05:15:29.095Z,68.00
2022-09-12T05:16:29.007Z,72.00
2022-09-12T05:17:29.018Z,76.00
2022-09-12T05:18:29.031Z,80.00
2022-09-12T05:19:28.991Z,84.00
2022-09-12T05:20:29.003Z,88.00
2022-09-12T05:21:28.976Z,96.00
2022-09-12T05:22:28.939Z,96.00
2022-09-12T05:23:28.931Z,104.00
2022-09-12T05:24:28.991Z,108.00
2022-09-12T05:25:28.927Z,112.00
2022-09-12T05:26:28.897Z,112.00
2022-09-12T05:27:28.926Z,116.00
2022-09-12T05:28:28.905Z,124.00
2022-09-12T05:29:28.849Z,128.00
2022-09-12T05:30:28.871Z,132.00
2022-09-12T05:31:28.901Z,132.00
2022-09-12T05:32:28.842Z,136.00
2022-09-12T05:33:28.802Z,144.00
2022-09-12T05:34:28.945Z,152.00
2022-09-12T05:35:28.783Z,152.00
2022-09-12T05:36:28.793Z,164.00
2022-09-12T05:37:28.774Z,168.00
2022-09-12T05:38:28.831Z,176.00
2022-09-12T05:39:28.769Z,180.00
2022-09-12T05:40:28.778Z,184.00
2022-09-12T05:41:28.738Z,192.00
2022-09-12T05:42:28.721Z,196.00
2022-09-12T05:43:28.777Z,196.00
2022-09-12T05:44:28.723Z,196.00
2022-09-12T05:45:28.701Z,184.00
2022-09-12T05:46:28.698Z,188.00
2022-09-12T05:47:28.682Z,192.00
2022-09-12T05:48:28.795Z,204.00
2022-09-12T05:49:28.642Z,196.00
2022-09-12T05:50:28.680Z,200.00
2022-09-12T05:51:28.694Z,220.00
2022-09-12T05:52:28.630Z,228.00
2022-09-12T05:53:28.647Z,232.00
2022-09-12T05:54:31.614Z,224.00
2022-09-12T05:55:29.633Z,236.00
2022-09-12T05:56:28.578Z,232.00
2022-09-12T05:57:28.622Z,236.00
2022-09-12T05:58:28.566Z,248.00
2022-09-12T05:59:28.641Z,268.00
2022-09-12T06:00:32.910Z,268.00
2022-09-12T06:01:29.661Z,284.00
2022-09-12T06:02:28.526Z,300.00
2022-09-12T06:03:29.097Z,328.00
2022-09-12T06:04:28.526Z,324.00
2022-09-12T06:05:28.506Z,320.00
2022-09-12T06:06:28.502Z,316.00
2022-09-12T06:07:28.479Z,316.00
2022-09-12T06:08:28.507Z,324.00
2022-09-12T06:09:28.438Z,336.00
2022-09-12T06:10:28.476Z,348.00
2022-09-12T06:11:28.499Z,344.00
2022-09-12T06:12:28.479Z,344.00
2022-09-12T06:13:28.421Z,352.00
2022-09-12T06:14:28.996Z,380.00
2022-09-12T06:15:28.547Z,376.00
2022-09-12T06:16:28.398Z,380.00
2022-09-12T06:17:28.405Z,376.00
2022-09-12T06:18:28.352Z,376.00
2022-09-12T06:19:28.380Z,380.00
2022-09-12T06:20:28.386Z,368.00
2022-09-12T06:21:28.293Z,368.00
2022-09-12T06:22:28.434Z,380.00
2022-09-12T06:23:28.361Z,396.00
2022-09-12T06:24:28.290Z,412.00
2022-09-12T06:25:28.298Z,440.00
2022-09-12T06:26:28.290Z,472.00
2022-09-12T06:27:28.276Z,484.00
2022-09-12T06:28:28.302Z,524.00
2022-09-12T06:29:28.338Z,572.00
2022-09-12T06:30:28.339Z,572.00
2022-09-12T06:31:28.245Z,564.00
2022-09-12T06:32:28.302Z,572.00
2022-09-12T06:33:28.181Z,568.00
2022-09-12T06:34:28.237Z,544.00
2022-09-12T06:35:28.206Z,540.00
2022-09-12T06:36:28.157Z,552.00
2022-09-12T06:37:28.197Z,576.00
2022-09-12T06:38:28.134Z,580.00
2022-09-12T06:39:28.186Z,572.00
2022-09-12T06:40:28.130Z,556.00
2022-09-12T06:41:28.310Z,556.00
2022-09-12T06:42:28.121Z,588.00
2022-09-12T06:43:28.129Z,632.00
2022-09-12T06:44:28.194Z,648.00
2022-09-12T06:45:28.159Z,628.00
2022-09-12T06:46:28.185Z,652.00
2022-09-12T06:47:28.062Z,640.00
2022-09-12T06:48:28.105Z,632.00
2022-09-12T06:49:28.077Z,628.00
2022-09-12T06:50:28.049Z,648.00
2022-09-12T06:51:28.024Z,652.00
2022-09-12T06:52:28.062Z,652.00
2022-09-12T06:53:28.016Z,712.00
2022-09-12T06:54:28.026Z,744.00
2022-09-12T06:55:28.105Z,780.00
2022-09-12T06:56:27.956Z,824.00
2022-09-12T06:57:27.940Z,828.00
2022-09-12T06:58:27.972Z,856.00
2022-09-12T06:59:27.980Z,836.00
2022-09-12T07:00:27.979Z,832.00
2022-09-12T07:01:28.026Z,800.00
2022-09-12T07:02:27.936Z,796.00
2022-09-12T07:03:27.938Z,836.00
2022-09-12T07:04:27.942Z,864.00
2022-09-12T07:05:27.910Z,892.00
2022-09-12T07:06:27.934Z,884.00
2022-09-12T07:07:27.979Z,868.00
2022-09-12T07:08:27.933Z,880.00
2022-09-12T07:09:27.939Z,880.00
2022-09-12T07:10:27.869Z,872.00
2022-09-12T07:11:27.832Z,892.00
2022-09-12T07:12:27.787Z,856.00
2022-09-12T07:13:27.825Z,880.00
2022-09-12T07:14:27.877Z,908.00
2022-09-12T07:15:27.941Z,916.00
2022-09-12T07:16:27.859Z,928.00
2022-09-12T07:17:27.813Z,944.00
2022-09-12T07:18:27.787Z,1032.00
2022-09-12T07:19:27.763Z,1052.00
2022-09-12T07:20:27.767Z,1008.00
2022-09-12T07:21:27.813Z,972.00
2022-09-12T07:22:27.706Z,980.00
2022-09-12T07:23:27.689Z,1028.00
2022-09-12T07:24:27.708Z,1020.00
2022-09-12T07:25:27.724Z,1096.00
2022-09-12T07:26:27.717Z,1136.00
2022-09-12T07:27:27.705Z,1120.00
2022-09-12T07:28:27.647Z,1048.00
2022-09-12T07:29:42.866Z,1032.00
2022-09-12T07:30:29.765Z,1068.00
2022-09-12T07:31:27.720Z,1148.00
2022-09-12T07:32:27.612Z,1148.00
2022-09-12T07:33:27.608Z,1228.00
2022-09-12T07:34:27.563Z,1272.00
2022-09-12T07:35:27.562Z,1300.00
2022-09-12T07:36:27.575Z,1284.00
2022-09-12T07:37:27.583Z,1264.00
2022-09-12T07:38:27.626Z,1248.00
2022-09-12T07:39:28.038Z,1308.00
2022-09-12T07:40:27.575Z,1304.00
2022-09-12T07:41:27.540Z,1248.00
2022-09-12T07:42:27.691Z,1332.00
2022-09-12T07:43:27.478Z,1252.00
2022-09-12T07:44:27.519Z,1256.00
2022-09-12T07:45:27.483Z,1260.00
2022-09-12T07:46:27.527Z,1232.00
2022-09-12T07:47:27.462Z,1244.00
2022-09-12T07:48:28.511Z,1328.00
2022-09-12T07:49:28.506Z,1336.00
2022-09-12T07:50:27.467Z,1328.00
2022-09-12T07:51:27.483Z,1372.00
2022-09-12T07:52:27.399Z,1340.00
2022-09-12T07:53:27.379Z,1304.00
2022-09-12T07:54:27.387Z,1356.00
2022-09-12T07:55:27.348Z,1520.00
2022-09-12T07:56:30.528Z,1420.00
2022-09-12T07:57:28.405Z,1460.00
2022-09-12T07:58:27.392Z,1440.00
2022-09-12T07:59:51.012Z,1492.00
2022-09-12T08:00:29.286Z,1580.00
2022-09-12T08:01:27.368Z,1564.00
2022-09-12T08:02:27.383Z,1728.00
2022-09-12T08:03:27.328Z,1808.00
2022-09-12T08:04:27.277Z,1844.00
2022-09-12T08:05:27.266Z,1820.00
2022-09-12T08:06:27.235Z,1796.00
2022-09-12T08:07:27.294Z,1812.00
2022-09-12T08:08:27.207Z,1916.00
2022-09-12T08:09:27.190Z,1940.00
2022-09-12T08:10:27.282Z,1952.00
2022-09-12T08:11:27.211Z,1928.00
2022-09-12T08:12:27.204Z,2188.00
2022-09-12T08:13:27.166Z,2112.00
2022-09-12T08:14:27.196Z,1972.00
2022-09-12T08:15:27.247Z,1904.00
2022-09-12T08:16:27.109Z,2012.00
2022-09-12T08:17:27.118Z,2216.00
2022-09-12T08:18:27.119Z,2316.00
2022-09-12T08:19:27.207Z,2364.00
2022-09-12T08:20:28.528Z,2236.00
2022-09-12T08:21:28.093Z,2116.00
2022-09-12T08:22:27.956Z,2144.00
2022-09-12T08:23:27.120Z,2200.00
2022-09-12T08:24:27.045Z,2144.00
2022-09-12T08:25:27.055Z,2148.00
2022-09-12T08:26:27.038Z,2016.00
2022-09-12T08:27:27.011Z,1892.00
2022-09-12T08:28:27.024Z,1828.00
2022-09-12T08:29:27.042Z,2140.00
2022-09-12T08:30:27.000Z,1984.00
2022-09-12T08:31:26.967Z,1976.00
2022-09-12T08:32:27.053Z,2104.00
2022-09-12T08:33:26.941Z,2236.00
2022-09-12T08:34:27.087Z,2340.00
2022-09-12T08:35:26.927Z,1944.00
2022-09-12T08:36:26.985Z,2052.00
2022-09-12T08:37:26.931Z,2348.00
2022-09-12T08:38:26.891Z,2248.00
2022-09-12T08:39:27.008Z,2032.00
2022-09-12T08:40:26.871Z,1684.00
2022-09-12T08:41:26.862Z,1536.00
2022-09-12T08:42:26.836Z,1480.00
2022-09-12T08:43:27.797Z,1428.00
2022-09-12T08:44:26.822Z,1464.00
2022-09-12T08:45:26.856Z,1432.00
2022-09-12T08:46:27.574Z,1424.00
2022-09-12T08:47:26.756Z,1412.00
2022-09-12T08:48:26.784Z,1436.00
2022-09-12T08:49:26.772Z,1416.00
2022-09-12T08:50:26.728Z,1436.00
2022-09-12T08:51:26.748Z,1428.00
2022-09-12T08:52:26.708Z,1432.00
2022-09-12T08:53:26.700Z,1472.00
2022-09-12T08:54:26.728Z,1444.00
2022-09-12T08:55:26.708Z,1464.00
2022-09-12T08:56:31.476Z,1428.00
2022-09-12T08:57:28.694Z,1512.00
2022-09-12T08:58:26.653Z,1604.00
2022-09-12T08:59:26.661Z,1472.00
2022-09-12T09:00:26.633Z,1576.00
2022-09-12T09:01:26.746Z,1608.00
2022-09-12T09:02:26.667Z,1560.00
2022-09-12T09:03:26.760Z,1556.00
2022-09-12T09:04:28.782Z,1548.00
2022-09-12T09:05:27.540Z,1516.00
2022-09-12T09:06:26.569Z,1520.00
2022-09-12T09:07:26.523Z,1540.00
2022-09-12T09:08:26.577Z,1648.00
2022-09-12T09:09:26.562Z,1576.00
2022-09-12T09:10:26.484Z,1640.00
2022-09-12T09:11:26.486Z,1620.00
2022-09-12T09:12:26.530Z,1632.00
2022-09-12T09:13:26.545Z,1664.00
2022-09-12T09:14:26.534Z,1756.00
2022-09-12T09:15:26.604Z,1776.00
2022-09-12T09:16:26.569Z,1740.00
2022-09-12T09:17:26.537Z,1736.00
2022-09-12T09:18:26.459Z,1764.00
2022-09-12T09:19:26.504Z,1872.00
2022-09-12T09:20:28.715Z,1800.00
2022-09-12T09:21:27.034Z,1856.00
2022-09-12T09:22:26.830Z,1796.00
2022-09-12T09:23:26.582Z,1848.00
2022-09-12T09:24:26.330Z,1888.00
2022-09-12T09:25:26.376Z,1952.00
2022-09-12T09:26:26.351Z,1948.00
2022-09-12T09:27:40.031Z,2008.00
2022-09-12T09:28:28.383Z,1976.00
2022-09-12T09:29:26.508Z,1992.00
2022-09-12T09:30:26.261Z,2024.00
2022-09-12T09:31:26.387Z,2016.00
2022-09-12T09:32:26.271Z,2076.00
2022-09-12T09:33:26.215Z,2052.00
2022-09-12T09:34:26.231Z,2000.00
2022-09-12T09:35:26.190Z,2016.00
2022-09-12T09:36:26.214Z,2000.00
2022-09-12T09:37:26.286Z,1964.00
2022-09-12T09:38:26.199Z,1900.00
2022-09-12T09:39:27.080Z,1932.00
2022-09-12T09:40:26.183Z,1996.00
2022-09-12T09:41:26.208Z,2064.00
2022-09-12T09:42:26.192Z,2824.00
2022-09-12T09:43:26.134Z,4104.00
2022-09-12T09:44:26.151Z,3912.00
2022-09-12T09:45:26.119Z,2180.00
2022-09-12T09:46:26.122Z,1884.00
2022-09-12T09:47:26.129Z,1816.00
2022-09-12T09:48:26.124Z,1804.00
2022-09-12T09:49:26.059Z,1876.00
2022-09-12T09:50:26.792Z,1792.00
2022-09-12T09:51:26.060Z,1872.00
2022-09-12T09:52:26.056Z,1820.00
2022-09-12T09:53:26.083Z,1776.00
2022-09-12T09:54:26.039Z,1812.00
2022-09-12T09:55:25.991Z,1800.00
2022-09-12T09:56:26.043Z,1836.00
2022-09-12T09:57:25.981Z,1812.00
2022-09-12T09:58:25.988Z,1836.00
2022-09-12T09:59:26.007Z,1868.00
2022-09-12T10:00:25.935Z,1892.00
2022-09-12T10:01:25.976Z,1916.00
2022-09-12T10:02:26.022Z,1900.00
2022-09-12T10:03:25.927Z,1916.00
2022-09-12T10:04:25.960Z,1872.00
2022-09-12T10:05:25.892Z,1976.00
2022-09-12T10:06:25.942Z,1888.00
2022-09-12T10:07:25.884Z,1920.00
2022-09-12T10:08:26.013Z,1904.00
2022-09-12T10:09:25.920Z,1936.00
2022-09-12T10:10:25.857Z,1940.00
2022-09-12T10:11:25.873Z,2100.00
2022-09-12T10:12:25.881Z,2000.00
2022-09-12T10:13:25.906Z,2044.00
2022-09-12T10:14:25.765Z,2084.00
2022-09-12T10:15:25.853Z,2072.00
2022-09-12T10:16:26.830Z,2084.00
2022-09-12T10:17:25.809Z,2272.00
2022-09-12T10:18:25.962Z,2144.00
2022-09-12T10:19:25.783Z,2156.00
2022-09-12T10:20:25.781Z,2120.00
2022-09-12T10:21:25.788Z,2084.00
2022-09-12T10:22:25.715Z,2092.00
2022-09-12T10:23:25.658Z,2120.00
2022-09-12T10:24:25.645Z,2176.00
2022-09-12T10:25:25.715Z,2296.00
2022-09-12T10:26:25.856Z,2140.00
2022-09-12T10:27:25.979Z,4920.00
2022-09-12T10:28:25.670Z,6168.00
2022-09-12T10:29:25.705Z,4188.00
2022-09-12T10:30:25.704Z,2200.00
2022-09-12T10:31:26.625Z,2252.00
2022-09-12T10:32:30.466Z,2308.00
2022-09-12T10:33:27.632Z,2300.00
2022-09-12T10:34:25.619Z,2320.00
2022-09-12T10:35:25.577Z,2236.00
2022-09-12T10:36:26.428Z,2380.00
2022-09-12T10:37:25.617Z,2300.00
2022-09-12T10:38:25.563Z,2356.00
2022-09-12T10:39:25.523Z,2240.00
2022-09-12T10:40:25.737Z,2448.00
2022-09-12T10:41:25.502Z,2292.00
2022-09-12T10:42:25.498Z,2248.00
2022-09-12T10:43:25.478Z,2436.00
2022-09-12T10:44:25.526Z,2304.00
2022-09-12T10:45:25.480Z,2376.00
2022-09-12T10:46:25.550Z,2464.00
2022-09-12T10:47:25.462Z,2424.00
2022-09-12T10:48:25.415Z,2380.00
2022-09-12T10:49:25.425Z,2384.00
2022-09-12T10:50:25.479Z,2404.00
2022-09-12T10:51:25.365Z,2372.00
2022-09-12T10:52:26.247Z,2344.00
2022-09-12T10:53:25.399Z,2352.00
2022-09-12T10:54:25.363Z,2376.00
2022-09-12T10:55:25.331Z,2512.00
2022-09-12T10:56:25.411Z,2460.00
2022-09-12T10:57:25.328Z,2368.00
2022-09-12T10:58:25.276Z,2352.00
2022-09-12T10:59:25.255Z,2596.00
2022-09-12T11:00:25.307Z,2512.00
2022-09-12T11:01:25.368Z,2528.00
2022-09-12T11:02:25.402Z,2628.00
2022-09-12T11:03:25.325Z,2588.00
2022-09-12T11:04:26.048Z,6532.00
2022-09-12T11:05:25.192Z,2468.00
2022-09-12T11:06:25.284Z,2512.00
2022-09-12T11:07:25.224Z,2524.00
2022-09-12T11:08:25.208Z,2604.00
2022-09-12T11:09:25.820Z,2480.00
2022-09-12T11:10:25.183Z,2652.00
2022-09-12T11:11:25.281Z,2620.00
2022-09-12T11:12:25.140Z,2588.00
2022-09-12T11:13:25.144Z,2472.00
2022-09-12T11:14:25.113Z,7816.00
2022-09-12T11:15:25.142Z,2388.00
2022-09-12T11:16:25.133Z,2292.00
2022-09-12T11:17:25.236Z,2228.00
2022-09-12T11:18:25.212Z,2296.00
2022-09-12T11:19:25.088Z,2264.00
2022-09-12T11:20:25.056Z,2316.00
2022-09-12T11:21:25.041Z,2384.00
2022-09-12T11:22:27.698Z,2260.00
2022-09-12T11:23:26.069Z,2356.00
2022-09-12T11:24:25.037Z,2340.00
2022-09-12T11:25:25.140Z,2284.00
2022-09-12T11:26:24.996Z,2280.00
2022-09-12T11:27:24.977Z,2252.00
2022-09-12T11:28:24.972Z,2224.00
2022-09-12T11:29:25.512Z,2152.00
2022-09-12T11:30:24.964Z,2076.00
2022-09-12T11:31:24.926Z,2192.00
2022-09-12T11:32:24.949Z,2180.00
2022-09-12T11:33:24.909Z,2152.00
2022-09-12T11:34:24.873Z,2140.00
2022-09-12T11:35:24.869Z,2196.00
2022-09-12T11:36:24.873Z,2160.00
2022-09-12T11:37:24.857Z,2176.00
2022-09-12T11:38:24.963Z,2140.00
2022-09-12T11:39:24.821Z,2212.00
2022-09-12T11:40:24.968Z,2236.00
2022-09-12T11:41:24.850Z,2292.00
2022-09-12T11:42:24.863Z,2388.00
2022-09-12T11:43:25.458Z,2392.00
2022-09-12T11:44:24.754Z,2444.00
2022-09-12T11:45:24.802Z,2472.00
2022-09-12T11:46:24.857Z,2468.00
2022-09-12T11:47:24.698Z,2468.00
2022-09-12T11:48:24.718Z,2532.00
2022-09-12T11:49:24.774Z,2344.00
2022-09-12T11:50:24.746Z,2324.00
2022-09-12T11:51:24.718Z,2296.00
2022-09-12T11:52:24.712Z,2220.00
2022-09-12T11:53:24.682Z,2180.00
2022-09-12T11:54:25.554Z,2088.00
2022-09-12T11:55:24.672Z,2100.00
2022-09-12T11:56:24.678Z,1916.00
2022-09-12T11:57:24.718Z,1952.00
2022-09-12T11:58:24.642Z,1888.00
2022-09-12T11:59:24.588Z,1876.00
2022-09-12T12:00:24.570Z,1960.00
2022-09-12T12:01:24.662Z,2016.00
2022-09-12T12:02:24.675Z,2176.00
2022-09-12T12:03:24.660Z,2316.00
2022-09-12T12:04:24.574Z,2516.00
2022-09-12T12:05:24.582Z,2448.00
2022-09-12T12:06:24.623Z,12812.00
2022-09-12T12:07:24.611Z,2896.00
2022-09-12T12:08:25.443Z,0.00
2022-09-12T12:09:24.635Z,3216.00
2022-09-12T12:10:24.744Z,6196.00
2022-09-12T12:11:24.498Z,2792.00
2022-09-12T12:12:24.503Z,2628.00
2022-09-12T12:13:24.470Z,2776.00
2022-09-12T12:14:24.469Z,2516.00
2022-09-12T12:15:24.463Z,2624.00
2022-09-12T12:16:24.573Z,2644.00
2022-09-12T12:17:24.387Z,2760.00
2022-09-12T12:18:24.552Z,2560.00
2022-09-12T12:19:24.400Z,6260.00
2022-09-12T12:20:24.334Z,6140.00
2022-09-12T12:21:24.383Z,2884.00
2022-09-12T12:22:24.380Z,2196.00
2022-09-12T12:23:24.359Z,4436.00
2022-09-12T12:24:24.924Z,5100.00
2022-09-12T12:25:28.838Z,6176.00
2022-09-12T12:26:26.363Z,4924.00
2022-09-12T12:27:24.276Z,2100.00
2022-09-12T12:28:24.399Z,2328.00
2022-09-12T12:29:24.263Z,2404.00
2022-09-12T12:30:24.273Z,2532.00
2022-09-12T12:31:24.346Z,2268.00
2022-09-12T12:32:24.308Z,2172.00
2022-09-12T12:33:24.261Z,2020.00
2022-09-12T12:34:25.299Z,2084.00
2022-09-12T12:35:24.206Z,2052.00
2022-09-12T12:36:24.267Z,2140.00
2022-09-12T12:37:24.164Z,2080.00